Charles B. Wheeler Downtown Airport

Airport
ICAO code: 
KMKC
Summary
ICAO Region: 
NAM
Territory: 
Location: 
Kansas City, Missouri,
Serving: 
Kansas City, Missouri
Coordinates: 
Aerial View: 
39° 7' 23.999" N, 94° 35' 34.012" W
Metar
Observation
KMKC 021454Z 23004KT 10SM CLR 12/01 A2999 RMK AO2 SLP155 T01170011 53021
Station
Kansas City, Kansas City Downtown Airport
Date/Time
2021-12-02 14:54:00
Wind direction
230°
Wind speed
04 kts
Lowest cloud amount
n/a
Temperature
11.7°C
Dew point
1.1°C
Humidity
48%
Weather condition
n/a

Description

Charles B. Wheeler Downtown Airport, also known as Kansas City Downtown Airport, is a public airport located in Kansas City, Missouri.

Climatology

Humid continental climate (Köppen climate classification Dfa) - characterized by four seasons: cold, windy, snowy winters, mild springs, hot, humid summers, and crisp and relatively short autumns. Precipitation reaches its lowest in January and February and peaks in summer and latter half of spring.

Runways

Designator Length Width Surface Rops
3/21 1539 46 ASP Yes/Yes
1/19 2134 46 CON Yes/Yes
Airport map: 
Aerial View: 

SKYbrary Partners:

Safety knowledge contributed by: